Time;durP1;ratioP1;P1;durP2;ratioP2;P2;SDS_P1;SDS_P2;PMS_P1;PMS_P2;Temp;Humidity;BMP_temperature;BMP_pressure;BME280_temperature;BME280_humidity;BME280_pressure;Samples;Min_cycle;Max_cycle;Signal;HPM_P1;HPM_P2
2022/06/07 00:00:00;;;;;;;26.35;21.20;;;;;;;13.10;100.00;101114.34;172007;28;782;-67
2022/06/07 00:00:08;;;;;;;26.45;21.20;;;;;;;13.11;100.00;101115.22;171987;28;947;-67
2022/06/07 00:00:15;;;;;;;26.50;21.53;;;;;;;13.11;100.00;101110.81;171994;28;998;-67
2022/06/07 00:00:20;;;;;;;26.80;21.42;;;;;;;13.13;100.00;101114.22;171935;28;904;-67
2022/06/07 00:00:26;;;;;;;25.67;21.60;;;;;;;13.11;100.00;101116.06;171177;28;1102;-68
2022/06/07 00:00:32;;;;;;;25.73;21.73;;;;;;;13.12;100.00;101117.78;171321;28;872;-68
2022/06/07 00:00:38;;;;;;;25.93;21.70;;;;;;;13.12;100.00;101109.91;171292;28;1351;-67
2022/06/07 00:00:44;;;;;;;25.44;21.54;;;;;;;13.11;100.00;101110.81;171324;28;985;-67
2022/06/07 00:00:50;;;;;;;26.48;21.80;;;;;;;13.11;100.00;101110.81;171333;28;875;-67
2022/06/07 00:00:56;;;;;;;27.27;22.03;;;;;;;13.12;100.00;101115.16;170589;29;923;-68
2022/06/07 00:01:01;;;;;;;26.88;21.92;;;;;;;13.13;100.00;101114.22;170652;29;669;-67
2022/06/07 00:01:07;;;;;;;26.88;21.77;;;;;;;13.13;100.00;101114.22;170681;29;797;-67
2022/06/07 00:01:12;;;;;;;26.93;21.60;;;;;;;13.13;100.00;101114.22;170719;29;855;-67
2022/06/07 00:01:18;;;;;;;26.60;21.58;;;;;;;13.13;100.00;101119.47;170648;29;935;-67
2022/06/07 00:01:23;;;;;;;26.30;21.37;;;;;;;13.15;100.00;101116.75;170653;29;851;-67
2022/06/07 00:01:29;;;;;;;27.77;21.10;;;;;;;13.13;100.00;101111.59;170628;29;919;-67
2022/06/07 00:01:35;;;;;;;27.73;20.93;;;;;;;13.13;100.00;101114.22;171175;28;903;-67
2022/06/07 00:01:42;;;;;;;28.00;21.24;;;;;;;13.15;100.00;101116.75;171308;28;915;-67
2022/06/07 00:01:47;;;;;;;27.88;21.13;;;;;;;13.14;100.00;101115.91;171311;28;982;-67
2022/06/07 00:01:53;;;;;;;27.95;21.10;;;;;;;13.14;100.00;101115.91;171335;28;1034;-67
2022/06/07 00:01:58;;;;;;;27.10;21.33;;;;;;;13.14;100.00;101115.91;171359;28;915;-67
2022/06/07 00:02:06;;;;;;;26.35;21.20;;;;;;;13.14;100.00;101117.69;171337;28;844;-67
2022/06/07 00:02:15;;;;;;;25.13;20.90;;;;;;;13.14;100.00;101115.91;171356;28;1034;-67
2022/06/07 00:02:28;;;;;;;24.69;20.91;;;;;;;13.15;100.00;101116.75;171320;28;1070;-67
2022/06/07 00:02:35;;;;;;;25.84;20.88;;;;;;;13.14;100.00;101115.91;171947;28;1268;-67
2022/06/07 00:02:41;;;;;;;26.88;21.00;;;;;;;13.14;100.00;101115.91;172072;28;966;-67
2022/06/07 00:02:46;;;;;;;26.50;20.80;;;;;;;13.13;100.00;101119.47;171956;28;922;-67
2022/06/07 00:02:51;;;;;;;26.13;20.60;;;;;;;13.14;100.00;101109.84;172006;28;951;-67
2022/06/07 00:02:58;;;;;;;25.27;20.63;;;;;;;13.14;100.00;101109.84;172046;28;891;-67
2022/06/07 00:03:04;;;;;;;24.13;20.67;;;;;;;13.16;100.00;101114.97;172113;28;934;-67
2022/06/07 00:03:10;;;;;;;24.30;20.70;;;;;;;13.15;100.00;101108.91;172100;28;986;-67
2022/06/07 00:03:16;;;;;;;25.35;20.88;;;;;;;13.15;100.00;101111.53;172587;28;876;-67
2022/06/07 00:03:22;;;;;;;25.92;21.10;;;;;;;13.16;100.00;101117.59;171925;28;1063;-67
2022/06/07 00:03:27;;;;;;;25.97;21.17;;;;;;;13.17;100.00;101119.31;171958;28;950;-67
2022/06/07 00:03:32;;;;;;;26.35;21.15;;;;;;;13.14;100.00;101110.66;172004;28;967;-67
2022/06/07 00:03:38;;;;;;;26.80;21.23;;;;;;;13.16;100.00;101112.34;172002;28;982;-67
2022/06/07 00:03:43;;;;;;;26.38;21.15;;;;;;;13.16;100.00;101112.34;172008;28;753;-67
2022/06/07 00:03:49;;;;;;;24.77;21.07;;;;;;;13.15;100.00;101111.53;171992;28;907;-67
2022/06/07 00:03:55;;;;;;;25.38;21.23;;;;;;;13.17;100.00;101116.69;172001;28;871;-68
2022/06/07 00:04:01;;;;;;;25.30;21.17;;;;;;;13.16;100.00;101112.34;171973;28;962;-67
2022/06/07 00:04:06;;;;;;;24.90;21.07;;;;;;;13.14;100.00;101115.91;171997;28;985;-67
2022/06/07 00:04:12;;;;;;;25.27;21.15;;;;;;;13.14;100.00;101112.47;171285;28;848;-67
2022/06/07 00:04:17;;;;;;;25.83;21.10;;;;;;;13.13;100.00;101111.59;171317;28;904;-67
2022/06/07 00:04:22;;;;;;;24.88;21.08;;;;;;;13.14;100.00;101115.91;171209;28;1477;-67
2022/06/07 00:04:28;;;;;;;23.97;20.90;;;;;;;13.10;100.00;101109.13;171326;28;1002;-67
2022/06/07 00:04:35;;;;;;;24.17;21.03;;;;;;;13.11;100.00;101110.81;171315;28;868;-67
2022/06/07 00:04:41;;;;;;;23.53;21.00;;;;;;;13.13;100.00;101108.97;171354;28;2064;-67
2022/06/07 00:04:46;;;;;;;23.60;21.08;;;;;;;13.13;100.00;101114.22;171334;28;804;-67
2022/06/07 00:04:53;;;;;;;24.83;21.07;;;;;;;13.13;100.00;101114.22;171321;28;1144;-67
2022/06/07 00:04:59;;;;;;;25.80;21.16;;;;;;;13.15;100.00;101114.16;171316;28;942;-67
2022/06/07 00:05:05;;;;;;;25.55;21.23;;;;;;;13.15;100.00;101108.91;171325;28;966;-67
2022/06/07 00:05:11;;;;;;;26.10;21.03;;;;;;;13.16;100.00;101112.34;171396;28;1054;-67
2022/06/07 00:05:18;;;;;;;26.83;21.05;;;;;;;13.14;100.00;101110.66;171302;28;1089;-67
2022/06/07 00:05:23;;;;;;;27.27;21.27;;;;;;;13.14;100.00;101110.66;171968;28;978;-67
2022/06/07 00:05:30;;;;;;;27.45;21.42;;;;;;;13.16;100.00;101114.97;172004;28;907;-67
2022/06/07 00:05:35;;;;;;;28.50;21.32;;;;;;;13.16;100.00;101107.13;171982;28;981;-67
2022/06/07 00:05:43;;;;;;;29.43;21.43;;;;;;;13.17;100.00;101108.84;172024;28;1041;-67
2022/06/07 00:05:49;;;;;;;28.07;21.32;;;;;;;13.17;100.00;101114.06;171991;28;986;-67
2022/06/07 00:05:55;;;;;;;26.43;21.03;;;;;;;13.16;100.00;101107.97;172040;28;787;-67
2022/06/07 00:06:01;;;;;;;25.58;20.80;;;;;;;13.18;100.00;101107.91;171985;28;985;-67
2022/06/07 00:06:07;;;;;;;24.33;20.85;;;;;;;13.17;100.00;101106.22;171992;28;946;-67
2022/06/07 00:06:12;;;;;;;23.70;21.15;;;;;;;13.18;100.00;101115.75;172060;28;959;-67
2022/06/07 00:06:17;;;;;;;23.97;21.27;;;;;;;13.18;100.00;101110.53;171999;28;1097;-67
2022/06/07 00:06:23;;;;;;;24.03;21.27;;;;;;;13.18;100.00;101110.53;172044;28;1014;-67
2022/06/07 00:06:30;;;;;;;24.42;21.52;;;;;;;13.18;100.00;101115.75;172049;28;915;-67
2022/06/07 00:06:36;;;;;;;26.16;22.12;;;;;;;13.18;100.00;101111.38;172036;28;918;-67
2022/06/07 00:06:41;;;;;;;26.38;22.02;;;;;;;13.18;100.00;101111.38;172011;28;1075;-67
2022/06/07 00:06:47;;;;;;;26.87;21.90;;;;;;;13.19;100.00;101112.22;172067;28;1089;-67
2022/06/07 00:06:52;;;;;;;26.98;22.02;;;;;;;13.18;100.00;101111.38;172044;28;1030;-67
2022/06/07 00:06:58;;;;;;;27.70;21.97;;;;;;;13.19;100.00;101113.06;172066;28;780;-67
2022/06/07 00:07:04;;;;;;;26.75;21.58;;;;;;;13.17;100.00;101112.28;172039;28;914;-67
2022/06/07 00:07:10;;;;;;;26.58;21.42;;;;;;;13.18;100.00;101105.28;172067;28;974;-67
2022/06/07 00:07:16;;;;;;;27.52;21.55;;;;;;;13.18;100.00;101107.91;172594;28;981;-67
2022/06/07 00:07:24;;;;;;;27.13;21.42;;;;;;;13.19;100.00;101110.44;172656;28;935;-67
2022/06/07 00:07:30;;;;;;;26.50;21.63;;;;;;;13.19;100.00;101112.22;172643;28;1004;-67
2022/06/07 00:07:36;;;;;;;25.90;21.88;;;;;;;13.18;100.00;101110.53;172656;28;843;-67
2022/06/07 00:07:41;;;;;;;25.73;21.60;;;;;;;13.13;100.00;101111.59;172730;28;847;-67
2022/06/07 00:07:47;;;;;;;25.47;21.83;;;;;;;13.10;100.00;101111.75;172667;28;899;-67
2022/06/07 00:07:54;;;;;;;25.33;22.10;;;;;;;13.12;100.00;101116.91;172648;28;776;-67
2022/06/07 00:07:59;;;;;;;25.68;21.84;;;;;;;13.11;100.00;101108.19;172658;28;990;-67
2022/06/07 00:08:05;;;;;;;26.53;21.57;;;;;;;13.05;100.00;101110.25;172664;28;958;-67
2022/06/07 00:08:12;;;;;;;26.75;21.75;;;;;;;13.03;100.00;101107.72;172714;28;1017;-67
2022/06/07 00:08:19;;;;;;;26.74;21.46;;;;;;;13.05;100.00;101111.13;172673;28;958;-68
2022/06/07 00:08:24;;;;;;;27.82;21.20;;;;;;;13.07;100.00;101111.88;172654;28;975;-67
2022/06/07 00:08:31;;;;;;;27.57;21.40;;;;;;;13.09;100.00;101111.81;171928;28;856;-67
2022/06/07 00:08:36;;;;;;;27.10;21.62;;;;;;;13.10;100.00;101113.50;171986;28;931;-67
2022/06/07 00:08:42;;;;;;;27.23;21.73;;;;;;;13.11;100.00;101108.19;171922;28;875;-68
2022/06/07 00:08:47;;;;;;;25.83;22.10;;;;;;;13.12;100.00;101106.44;171991;28;835;-67
2022/06/07 00:08:53;;;;;;;25.17;22.25;;;;;;;13.12;100.00;101112.53;171992;28;859;-67
2022/06/07 00:08:58;;;;;;;25.07;22.30;;;;;;;13.13;100.00;101111.59;171988;28;974;-67
2022/06/07 00:09:04;;;;;;;25.73;22.17;;;;;;;13.14;100.00;101110.66;171943;28;1939;-67
2022/06/07 00:09:09;;;;;;;26.30;22.00;;;;;;;13.16;100.00;101109.72;171993;28;832;-67
2022/06/07 00:09:15;;;;;;;26.87;21.73;;;;;;;13.10;100.00;101114.34;171628;28;1049;-67
2022/06/07 00:09:20;;;;;;;27.98;21.45;;;;;;;13.04;100.00;101104.19;171327;28;839;-67
2022/06/07 00:09:26;;;;;;;28.87;21.57;;;;;;;13.06;100.00;101107.56;171326;28;844;-67
2022/06/07 00:09:32;;;;;;;29.00;21.50;;;;;;;13.01;100.00;101112.19;171300;28;943;-66
2022/06/07 00:09:37;;;;;;;28.63;21.65;;;;;;;12.96;100.00;101111.56;171337;28;888;-67
2022/06/07 00:09:43;;;;;;;28.47;22.13;;;;;;;12.92;100.00;101116.09;171355;28;1085;-66
2022/06/07 00:09:48;;;;;;;28.52;22.25;;;;;;;12.94;100.00;101108.19;171349;28;943;-67
2022/06/07 00:09:55;;;;;;;27.30;22.13;;;;;;;12.90;100.00;101112.69;171338;28;762;-66
2022/06/07 00:10:00;;;;;;;25.93;22.07;;;;;;;12.86;100.00;101106.78;171350;28;1069;-67
2022/06/07 00:10:06;;;;;;;25.55;22.38;;;;;;;12.91;100.00;101110.94;171340;28;868;-67
2022/06/07 00:10:12;;;;;;;25.17;22.20;;;;;;;12.95;100.00;101109.88;171372;28;907;-67
2022/06/07 00:10:18;;;;;;;25.80;22.33;;;;;;;12.97;100.00;101113.28;171325;28;912;-66
2022/06/07 00:10:25;;;;;;;26.60;22.73;;;;;;;12.99;100.00;101100.94;171300;28;911;-67
2022/06/07 00:10:30;;;;;;;26.97;22.70;;;;;;;12.97;100.00;101115.88;171947;28;967;-67
2022/06/07 00:10:36;;;;;;;26.80;22.33;;;;;;;12.95;100.00;101109.88;171978;28;780;-67
2022/06/07 00:10:43;;;;;;;26.67;22.37;;;;;;;12.95;100.00;101107.25;172106;28;938;-67
2022/06/07 00:10:49;;;;;;;25.67;22.20;;;;;;;12.93;100.00;101106.50;172078;28;891;-67
2022/06/07 00:10:55;;;;;;;26.33;22.05;;;;;;;12.97;100.00;101108.03;172014;28;1065;-67
2022/06/07 00:11:00;;;;;;;26.47;22.33;;;;;;;12.96;100.00;101111.56;172067;28;920;-67
2022/06/07 00:11:06;;;;;;;26.80;22.80;;;;;;;12.93;100.00;101112.56;172011;28;973;-67
2022/06/07 00:11:11;;;;;;;27.33;22.90;;;;;;;12.93;100.00;101107.31;172084;28;919;-67
2022/06/07 00:11:18;;;;;;;28.00;23.15;;;;;;;12.97;100.00;101105.41;172025;28;919;-67
2022/06/07 00:11:24;;;;;;;29.10;23.26;;;;;;;12.98;100.00;101100.09;172015;28;962;-67
2022/06/07 00:11:29;;;;;;;30.07;23.23;;;;;;;12.90;100.00;101107.47;172000;28;915;-67
2022/06/07 00:11:34;;;;;;;30.17;23.03;;;;;;;12.86;100.00;101106.78;172023;28;958;-67
2022/06/07 00:11:40;;;;;;;30.90;23.10;;;;;;;12.90;100.00;101109.25;172020;28;1038;-67
2022/06/07 00:11:45;;;;;;;30.83;22.77;;;;;;;12.90;100.00;101107.47;172023;28;907;-67
2022/06/07 00:11:51;;;;;;;29.00;22.80;;;;;;;12.87;100.00;101108.47;171911;28;1390;-67
2022/06/07 00:11:58;;;;;;;29.27;22.90;;;;;;;12.89;100.00;101111.00;171997;28;872;-67
2022/06/07 00:12:04;;;;;;;30.20;22.93;;;;;;;12.91;100.00;101108.31;172001;28;951;-67
2022/06/07 00:12:10;;;;;;;29.20;22.86;;;;;;;12.93;100.00;101111.72;171988;28;1054;-67
2022/06/07 00:12:17;;;;;;;29.95;23.02;;;;;;;12.95;100.00;101108.09;171994;28;1069;-67
2022/06/07 00:12:23;;;;;;;29.77;23.15;;;;;;;12.99;100.00;101108.78;171994;28;978;-67
2022/06/07 00:12:28;;;;;;;27.94;23.06;;;;;;;13.01;100.00;101099.09;171899;28;1137;-67
2022/06/07 00:12:34;;;;;;;26.87;23.00;;;;;;;13.03;100.00;101110.34;171988;28;911;-67
2022/06/07 00:12:40;;;;;;;26.15;22.90;;;;;;;13.01;100.00;101104.34;171984;28;1038;-67
2022/06/07 00:12:45;;;;;;;25.77;22.97;;;;;;;13.04;100.00;101105.97;172017;28;946;-67
2022/06/07 00:12:52;;;;;;;26.48;23.10;;;;;;;13.06;100.00;101107.56;171998;28;1022;-66
2022/06/07 00:12:58;;;;;;;26.86;22.96;;;;;;;13.05;100.00;101099.78;171860;28;894;-66
2022/06/07 00:13:04;;;;;;;27.40;23.20;;;;;;;13.07;100.00;101104.03;171947;28;934;-67
2022/06/07 00:13:11;;;;;;;27.95;23.27;;;;;;;13.05;100.00;101111.13;171856;28;1224;-67
2022/06/07 00:13:18;;;;;;;27.77;23.23;;;;;;;13.05;100.00;101105.88;171996;28;871;-67
2022/06/07 00:13:25;;;;;;;27.32;23.17;;;;;;;13.06;100.00;101106.72;171871;28;1516;-67
2022/06/07 00:13:31;;;;;;;28.23;23.47;;;;;;;13.07;100.00;101104.03;171970;28;1014;-67
2022/06/07 00:13:37;;;;;;;29.63;23.87;;;;;;;13.07;100.00;101104.03;171999;28;971;-67
2022/06/07 00:13:43;;;;;;;30.07;24.00;;;;;;;13.10;100.00;101108.25;172016;28;962;-67
2022/06/07 00:13:49;;;;;;;30.37;24.00;;;;;;;13.11;100.00;101109.97;171211;28;891;-67
2022/06/07 00:13:54;;;;;;;30.00;24.02;;;;;;;13.12;100.00;101107.28;170583;29;1061;-67
2022/06/07 00:14:00;;;;;;;29.55;24.02;;;;;;;13.13;100.00;101108.97;170622;29;919;-67
2022/06/07 00:14:05;;;;;;;28.77;23.83;;;;;;;13.13;100.00;101098.50;170656;29;828;-67
2022/06/07 00:14:10;;;;;;;29.33;23.70;;;;;;;13.08;100.00;101104.88;170591;28;991;-68
2022/06/07 00:14:16;;;;;;;28.97;23.73;;;;;;;13.12;100.00;101109.03;170656;29;840;-67
2022/06/07 00:14:21;;;;;;;29.13;23.75;;;;;;;13.13;100.00;101102.88;170645;29;1031;-67
2022/06/07 00:14:28;;;;;;;30.67;23.93;;;;;;;13.13;100.00;101102.88;170661;29;955;-67
2022/06/07 00:14:34;;;;;;;30.28;23.78;;;;;;;13.14;100.00;101104.59;170635;29;1026;-67
2022/06/07 00:14:40;;;;;;;29.52;23.88;;;;;;;13.10;100.00;101103.88;170655;29;908;-67
2022/06/07 00:14:46;;;;;;;30.10;24.17;;;;;;;13.01;100.00;101104.34;170719;29;931;-66
2022/06/07 00:14:52;;;;;;;29.90;24.17;;;;;;;12.93;100.00;101101.25;170560;29;1048;-66
2022/06/07 00:14:58;;;;;;;30.13;24.23;;;;;;;12.92;100.00;101110.88;170664;29;923;-67
2022/06/07 00:15:05;;;;;;;29.87;24.07;;;;;;;12.92;100.00;101104.75;170502;29;821;-67
2022/06/07 00:15:11;;;;;;;30.20;23.90;;;;;;;12.94;100.00;101102.94;170601;29;948;-67
2022/06/07 00:15:17;;;;;;;29.75;23.65;;;;;;;12.97;100.00;101100.19;171240;28;1080;-67
2022/06/07 00:15:23;;;;;;;30.83;23.90;;;;;;;12.98;100.00;101107.09;171324;28;813;-67
2022/06/07 00:15:28;;;;;;;31.42;23.92;;;;;;;12.94;100.00;101102.94;171324;28;852;-67
2022/06/07 00:15:34;;;;;;;31.80;24.13;;;;;;;12.88;100.00;101104.06;171305;28;978;-67
2022/06/07 00:15:40;;;;;;;30.75;24.00;;;;;;;12.87;100.00;101097.97;171321;28;1037;-67
2022/06/07 00:15:46;;;;;;;30.83;24.20;;;;;;;12.89;100.00;101105.78;171339;28;899;-68
2022/06/07 00:15:51;;;;;;;30.75;24.23;;;;;;;12.88;100.00;101099.69;171453;28;987;-67
2022/06/07 00:15:57;;;;;;;29.13;24.33;;;;;;;12.91;100.00;101108.31;171923;28;927;-67
2022/06/07 00:16:03;;;;;;;28.80;24.45;;;;;;;12.91;100.00;101108.31;171987;28;863;-67
2022/06/07 00:16:08;;;;;;;29.60;24.83;;;;;;;12.92;100.00;101104.75;171969;28;935;-67
2022/06/07 00:16:16;;;;;;;29.80;24.80;;;;;;;12.93;100.00;101101.25;172022;28;844;-67
2022/06/07 00:16:22;;;;;;;29.92;24.72;;;;;;;12.96;100.00;101106.31;171984;28;1008;-67
2022/06/07 00:16:27;;;;;;;31.30;24.70;;;;;;;12.98;100.00;101099.25;171982;28;1081;-67
2022/06/07 00:16:33;;;;;;;31.00;24.80;;;;;;;13.00;100.00;101105.25;172013;28;856;-67
2022/06/07 00:16:38;;;;;;;30.47;24.87;;;;;;;13.02;100.00;101100.78;171974;28;950;-67
2022/06/07 00:16:44;;;;;;;30.10;24.80;;;;;;;13.04;100.00;101098.09;171982;28;900;-67
2022/06/07 00:16:50;;;;;;;30.63;24.92;;;;;;;13.05;100.00;101105.88;171964;28;1096;-67
2022/06/07 00:16:56;;;;;;;29.97;25.13;;;;;;;13.05;100.00;101100.66;172013;28;965;-67
2022/06/07 00:17:05;;;;;;;30.70;25.10;;;;;;;13.08;100.00;101103.13;171949;28;1084;-67
2022/06/07 00:17:12;;;;;;;31.63;25.23;;;;;;;13.10;100.00;101106.50;171955;28;959;-67
2022/06/07 00:17:17;;;;;;;32.34;25.24;;;;;;;13.08;100.00;101105.75;172649;28;990;-67
2022/06/07 00:17:23;;;;;;;31.40;24.90;;;;;;;13.06;100.00;101106.72;172669;28;906;-67
2022/06/07 00:17:28;;;;;;;31.50;25.10;;;;;;;13.05;100.00;101100.66;172680;28;840;-67
2022/06/07 00:17:34;;;;;;;31.50;25.20;;;;;;;13.04;100.00;101104.19;172706;28;836;-67
2022/06/07 00:17:40;;;;;;;30.80;25.20;;;;;;;13.03;100.00;101105.09;172688;28;852;-67
2022/06/07 00:17:45;;;;;;;31.02;25.33;;;;;;;13.05;100.00;101100.66;172631;28;963;-67
2022/06/07 00:17:51;;;;;;;31.07;25.50;;;;;;;13.08;100.00;101110.13;172644;28;895;-67
2022/06/07 00:17:57;;;;;;;30.63;25.45;;;;;;;13.10;100.00;101103.03;172201;28;863;-67
2022/06/07 00:18:03;;;;;;;30.55;25.23;;;;;;;13.06;100.00;101096.22;172032;28;844;-67
2022/06/07 00:18:10;;;;;;;31.58;25.30;;;;;;;12.98;100.00;101100.09;172027;28;919;-67
2022/06/07 00:18:16;;;;;;;30.57;24.80;;;;;;;12.98;100.00;101100.09;171919;28;1402;-67
2022/06/07 00:18:21;;;;;;;30.25;24.92;;;;;;;13.01;100.00;101099.94;171972;28;820;-68
2022/06/07 00:18:27;;;;;;;29.83;24.90;;;;;;;13.04;100.00;101098.97;171903;28;1030;-67
2022/06/07 00:18:33;;;;;;;30.02;25.15;;;;;;;13.02;100.00;101106.03;171977;28;1037;-65
2022/06/07 00:18:38;;;;;;;30.70;25.48;;;;;;;12.95;100.00;101097.63;171976;28;919;-67
2022/06/07 00:18:44;;;;;;;30.47;25.83;;;;;;;12.98;100.00;101107.09;172054;28;1070;-65
2022/06/07 00:18:50;;;;;;;30.85;25.85;;;;;;;12.96;100.00;101106.31;171974;28;891;-65
2022/06/07 00:18:55;;;;;;;32.10;26.10;;;;;;;12.94;100.00;101100.31;171980;28;851;-66
2022/06/07 00:19:01;;;;;;;31.80;26.10;;;;;;;12.97;100.00;101098.38;171976;28;1151;-65
2022/06/07 00:19:06;;;;;;;30.60;25.67;;;;;;;13.00;100.00;101094.75;171969;28;839;-66
2022/06/07 00:19:12;;;;;;;30.73;25.47;;;;;;;13.03;100.00;101097.25;171948;28;903;-66
2022/06/07 00:19:17;;;;;;;31.02;25.38;;;;;;;13.06;100.00;101098.84;171965;28;876;-66
2022/06/07 00:19:23;;;;;;;29.83;25.20;;;;;;;13.01;100.00;101097.31;171234;28;780;-67
2022/06/07 00:19:28;;;;;;;30.17;25.00;;;;;;;13.01;100.00;101099.09;171303;28;978;-67
2022/06/07 00:19:35;;;;;;;30.97;25.17;;;;;;;13.00;100.00;101095.63;171322;28;852;-66
2022/06/07 00:19:41;;;;;;;31.24;25.28;;;;;;;13.01;100.00;101093.88;171319;28;896;-66
2022/06/07 00:19:47;;;;;;;32.60;25.25;;;;;;;12.99;100.00;101100.94;171340;28;897;-68
2022/06/07 00:19:52;;;;;;;33.88;25.20;;;;;;;12.93;100.00;101103.88;171313;28;900;-68
2022/06/07 00:19:58;;;;;;;34.50;25.37;;;;;;;12.96;100.00;101095.84;171316;28;856;-66
2022/06/07 00:20:05;;;;;;;35.08;25.35;;;;;;;12.98;100.00;101099.25;171298;28;1030;-65
2022/06/07 00:20:12;;;;;;;34.23;25.57;;;;;;;12.95;100.00;101096.75;171311;28;959;-65
2022/06/07 00:20:18;;;;;;;33.20;25.87;;;;;;;12.89;100.00;101097.91;172009;28;950;-65
2022/06/07 00:20:23;;;;;;;31.90;25.77;;;;;;;12.88;100.00;101099.69;172012;28;888;-66
2022/06/07 00:20:29;;;;;;;31.48;26.05;;;;;;;12.94;100.00;101102.94;171898;28;899;-65
2022/06/07 00:20:37;;;;;;;30.70;26.07;;;;;;;12.98;100.00;101096.63;171975;28;840;-65
2022/06/07 00:20:43;;;;;;;31.27;25.93;;;;;;;12.96;100.00;101103.69;172015;28;1070;-65
2022/06/07 00:20:49;;;;;;;30.93;25.83;;;;;;;12.85;100.00;101102.47;172017;28;876;-66
2022/06/07 00:20:55;;;;;;;31.58;26.02;;;;;;;12.85;100.00;101101.59;171178;28;898;-66
2022/06/07 00:21:01;;;;;;;33.08;25.73;;;;;;;12.83;100.00;101095.59;171213;28;1401;-65
2022/06/07 00:21:07;;;;;;;32.33;25.80;;;;;;;12.84;100.00;101103.38;171327;28;903;-65
2022/06/07 00:21:13;;;;;;;32.35;25.67;;;;;;;12.86;100.00;101098.91;171288;28;923;-65
2022/06/07 00:21:18;;;;;;;33.38;25.88;;;;;;;12.90;100.00;101096.97;171238;28;844;-65
2022/06/07 00:21:23;;;;;;;34.00;26.20;;;;;;;12.93;100.00;101101.25;171895;28;923;-65
2022/06/07 00:21:29;;;;;;;33.08;26.25;;;;;;;12.89;100.00;101105.78;171951;28;907;-65
2022/06/07 00:21:34;;;;;;;33.30;26.20;;;;;;;12.79;100.00;101105.34;171951;28;867;-65
2022/06/07 00:21:40;;;;;;;33.05;26.02;;;;;;;12.75;100.00;101098.56;171936;28;1086;-66
2022/06/07 00:21:45;;;;;;;32.67;26.10;;;;;;;12.75;100.00;101096.81;172000;28;859;-66
2022/06/07 00:21:51;;;;;;;31.50;25.98;;;;;;;12.76;100.00;101100.25;171999;28;907;-67
2022/06/07 00:21:56;;;;;;;30.57;25.73;;;;;;;12.75;100.00;101104.66;171956;28;864;-67
2022/06/07 00:22:03;;;;;;;30.98;25.77;;;;;;;12.74;100.00;101099.50;171978;28;824;-66
2022/06/07 00:22:10;;;;;;;30.40;26.20;;;;;;;12.79;100.00;101105.34;172020;28;888;-65
2022/06/07 00:22:16;;;;;;;30.43;26.43;;;;;;;12.83;100.00;101101.66;172036;28;868;-66
2022/06/07 00:22:22;;;;;;;30.04;26.34;;;;;;;12.83;100.00;101101.66;171971;28;903;-66
2022/06/07 00:22:27;;;;;;;29.83;26.60;;;;;;;12.87;100.00;101097.97;171545;28;801;-66
2022/06/07 00:22:33;;;;;;;29.95;26.75;;;;;;;12.91;100.00;101108.31;171302;28;924;-66
2022/06/07 00:22:39;;;;;;;29.47;26.37;;;;;;;12.93;100.00;101102.06;171296;28;776;-66
2022/06/07 00:22:45;;;;;;;29.32;26.22;;;;;;;12.96;100.00;101101.06;171365;28;907;-66
2022/06/07 00:22:51;;;;;;;29.20;26.10;;;;;;;12.95;100.00;101096.75;171294;28;1014;-66
2022/06/07 00:22:58;;;;;;;29.85;26.23;;;;;;;12.97;100.00;101098.38;171903;28;903;-66
2022/06/07 00:23:08;;;;;;;30.08;26.24;;;;;;;12.99;100.00;101099.16;171962;28;1060;-66
2022/06/07 00:23:17;;;;;;;31.16;26.59;;;;;;;13.01;100.00;101093.88;171874;28;1544;-66
2022/06/07 00:23:22;;;;;;;31.93;26.87;;;;;;;13.01;100.00;101088.63;171967;28;916;-65
2022/06/07 00:23:28;;;;;;;31.50;26.50;;;;;;;12.99;100.00;101098.31;171893;28;908;-66
2022/06/07 00:23:34;;;;;;;32.22;26.40;;;;;;;13.01;100.00;101094.69;171703;28;789;-66
2022/06/07 00:23:40;;;;;;;31.87;26.37;;;;;;;13.03;100.00;101099.03;171991;28;1136;-66
2022/06/07 00:23:45;;;;;;;31.57;26.13;;;;;;;13.00;100.00;101097.38;172026;28;860;-66
2022/06/07 00:23:50;;;;;;;32.07;26.00;;;;;;;12.92;100.00;101096.91;171994;28;855;-66
2022/06/07 00:23:59;;;;;;;32.05;26.08;;;;;;;12.87;100.00;101097.97;172413;28;924;-65
2022/06/07 00:24:05;;;;;;;31.90;26.14;;;;;;;12.93;100.00;101102.06;172624;28;1105;-65
2022/06/07 00:24:12;;;;;;;32.10;26.05;;;;;;;12.96;100.00;101095.84;171924;28;884;-66
2022/06/07 00:24:19;;;;;;;31.83;26.48;;;;;;;12.97;100.00;101101.00;171945;28;1069;-66
2022/06/07 00:24:25;;;;;;;31.24;26.56;;;;;;;13.00;100.00;101095.63;171939;28;946;-67
2022/06/07 00:24:31;;;;;;;30.60;26.40;;;;;;;13.01;100.00;101093.88;171642;28;1010;-66
2022/06/07 00:24:37;;;;;;;30.23;26.53;;;;;;;12.99;100.00;101095.69;171812;28;1491;-66
2022/06/07 00:24:44;;;;;;;30.72;26.66;;;;;;;12.95;100.00;101094.16;172000;28;979;-66
2022/06/07 00:24:49;;;;;;;30.52;26.67;;;;;;;12.95;100.00;101089.78;171202;28;1028;-66
2022/06/07 00:24:54;;;;;;;31.65;26.83;;;;;;;12.98;100.00;101091.38;171266;28;920;-66
2022/06/07 00:25:00;;;;;;;31.43;26.90;;;;;;;13.00;100.00;101092.13;171281;28;853;-66
2022/06/07 00:25:09;;;;;;;32.13;27.10;;;;;;;13.01;100.00;101091.25;171256;28;990;-66
2022/06/07 00:25:16;;;;;;;31.57;26.94;;;;;;;12.92;100.00;101092.53;171322;28;1096;-66
2022/06/07 00:25:22;;;;;;;31.87;26.90;;;;;;;12.90;100.00;101098.78;171328;28;1070;-66
2022/06/07 00:25:28;;;;;;;31.95;26.70;;;;;;;12.86;100.00;101096.28;171207;28;1380;-65
2022/06/07 00:25:34;;;;;;;31.35;26.33;;;;;;;12.92;100.00;101096.91;171024;28;689;-66
2022/06/07 00:25:44;;;;;;;32.27;26.43;;;;;;;12.96;100.00;101095.84;171309;28;884;-66
2022/06/07 00:25:54;;;;;;;32.61;26.54;;;;;;;12.95;100.00;101094.16;171256;28;1159;-66
2022/06/07 00:25:59;;;;;;;31.55;26.40;;;;;;;12.96;100.00;101095.84;171281;28;1182;-66
2022/06/07 00:26:05;;;;;;;31.70;26.52;;;;;;;12.96;100.00;101098.47;171339;28;812;-66
2022/06/07 00:26:11;;;;;;;30.45;26.33;;;;;;;12.91;100.00;101097.84;171646;28;971;-65
2022/06/07 00:26:17;;;;;;;29.45;26.20;;;;;;;12.95;100.00;101094.16;172037;28;863;-65
2022/06/07 00:26:22;;;;;;;29.17;26.00;;;;;;;12.97;100.00;101094.94;171282;28;805;-66
2022/06/07 00:26:29;;;;;;;29.70;26.23;;;;;;;12.97;100.00;101098.38;171304;28;916;-66
2022/06/07 00:26:38;;;;;;;29.84;26.54;;;;;;;12.99;100.00;101095.69;171015;28;1078;-66
2022/06/07 00:26:43;;;;;;;31.00;26.90;;;;;;;13.02;100.00;101090.31;171332;28;969;-66
2022/06/07 00:26:49;;;;;;;33.22;27.17;;;;;;;13.03;100.00;101094.63;171293;28;853;-66
2022/06/07 00:26:55;;;;;;;33.33;27.52;;;;;;;13.04;100.00;101088.47;170265;28;777;-66
2022/06/07 00:27:01;;;;;;;33.22;27.52;;;;;;;13.06;100.00;101096.22;170363;28;832;-66
2022/06/07 00:27:07;;;;;;;32.27;27.10;;;;;;;13.07;100.00;101098.78;171316;28;872;-67
2022/06/07 00:27:13;;;;;;;31.95;27.38;;;;;;;13.08;100.00;101084.78;171281;28;915;-67
2022/06/07 00:27:19;;;;;;;31.33;27.60;;;;;;;13.10;100.00;101098.63;171232;28;1011;-66
2022/06/07 00:27:24;;;;;;;32.45;27.83;;;;;;;13.12;100.00;101090.72;171417;28;895;-66
2022/06/07 00:27:30;;;;;;;32.03;27.60;;;;;;;13.12;100.00;101094.19;171970;28;1097;-66
2022/06/07 00:27:36;;;;;;;32.45;27.20;;;;;;;13.12;100.00;101094.19;171992;28;943;-66
2022/06/07 00:27:42;;;;;;;32.47;26.83;;;;;;;13.08;100.00;101099.66;171988;28;995;-67
2022/06/07 00:27:48;;;;;;;32.47;26.50;;;;;;;13.06;100.00;101088.38;171973;28;963;-66
2022/06/07 00:27:54;;;;;;;30.80;26.03;;;;;;;13.05;100.00;101089.31;172008;28;1057;-66
2022/06/07 00:28:00;;;;;;;31.27;26.42;;;;;;;13.08;100.00;101094.41;171957;28;860;-66